Nearby METAR Reports

 

GCLP - Las Palmas/Gando, Spain
Distance from station: NE 26km
Updated: 18/01/2020 23:00
Clear
Clear
 Wind from NNW
Wind: NNW 22 km/h
Temperature: 18°C
Dew Point: 7°C
Humidity: 49%
Barometer: 1028 hPa
Summary: Clear
Visibility: greater than 10 km
2020/01/18 23:00 GCLP 182300Z 34012KT CAVOK 18/07 Q1028 NOSIG
GCTS - Tenerife Sur/Rei, Spain
Distance from station: WNW 102km
Updated: 18/01/2020 23:00
Clear
Clear
 Wind from ENE
Wind: ENE 31 km/h
Temperature: 19°C
Dew Point: -2°C
Humidity: 24%
Barometer: 1027 hPa
Summary: Clear
Visibility: greater than 10 km
2020/01/18 23:00 GCTS 182300Z 07017KT CAVOK 19/M02 Q1027 NOSIG
 
GCXO - Tenerife/Los Rod, Spain
Distance from station: NW 110km
Updated: 18/01/2020 23:00
Clear
Clear
 Wind from SE
Wind: SE 17 km/h
Temperature: 13°C
Dew Point: 10°C
Humidity: 82%
Barometer: 1029 hPa
Summary: Clear
Visibility: greater than 10 km
2020/01/18 23:00 GCXO 182300Z 14009KT 100V170 CAVOK 13/10 Q1029 NOSIG
GCGM - La Gomera Arpt, Spain
Distance from station: W 164km
Updated: 18/01/2020 23:00
Clear
Clear
 Wind from calm
Wind: Calm
Temperature: 18°C
Dew Point: 3°C
Humidity: 37%
Barometer: 1027 hPa
Summary: Clear
Visibility: greater than 10 km
2020/01/18 23:00 GCGM 182300Z AUTO 00000KT CAVOK 18/03 Q1027 RMK R09/00000KT ARP/VRB01KT
 
GCFV - Fuerteventura Ar, Spain
Distance from station: ENE 183km
Updated: 18/01/2020 23:00
Clear
Clear
 Wind from N
Wind: N 15 km/h
Temperature: 17°C
Dew Point: 15°C
Humidity: 88%
Barometer: 1029 hPa
Summary: Clear
Visibility: greater than 10 km
2020/01/18 23:00 GCFV 182300Z AUTO 36008KT CAVOK 17/15 Q1029
GCHI - Hierro Airport, Spain
Distance from station: W 226km
Updated: 18/01/2020 23:00
Clear
Clear
 Wind from NW
Wind: NW 11 km/h
Temperature: 18°C
Dew Point: 12°C
Humidity: 68%
Barometer: 1028 hPa
Summary: Clear
Visibility: greater than 10 km
2020/01/18 23:00 GCHI 182300Z AUTO 32006KT 280V350 CAVOK 18/12 Q1028
 
GCLA - La Palma Airport, Spain
Distance from station: WNW 233km
Updated: 18/01/2020 23:00
Clear
Clear
 Wind from NNW
Wind: NNW 15 km/h
Temperature: 17°C
Dew Point: 12°C
Humidity: 73%
Barometer: 1029 hPa
Summary: Clear
Visibility: greater than 10 km
2020/01/18 23:00 GCLA 182300Z AUTO 33008KT CAVOK 17/12 Q1029
GCRR - Arrecife/Lanzaro, Spain
Distance from station: NE 234km
Updated: 18/01/2020 23:00
Clear
Clear
 Wind from NE
Wind: NE 13 km/h
Temperature: 17°C
Dew Point: 13°C
Humidity: 77%
Barometer: 1028 hPa
Summary: Clear
Visibility: greater than 10 km
2020/01/18 23:00 GCRR 182300Z 05007KT CAVOK 17/13 Q1028
 
LPMA - Funchal/Madeira, Portugal
Distance from station: NNW 556km
Updated: 18/01/2020 23:00
Few Clouds
Few Clouds
 Wind from N
Wind: N 19 km/h
Temperature: 16°C
Dew Point: 8°C
Humidity: 59%
Barometer: 1032 hPa
Clouds: Few Clouds
Visibility: 10 km
Cloud details: Few Clouds 457 m
2020/01/18 23:00 LPMA 182300Z 01010KT 9999 FEW015 16/08 Q1032
LPPS - Porto Santo Isla, Portugal
Distance from station: N 594km
Updated: 18/01/2020 23:00
Few Clouds
Few Clouds
 Wind from NE
Wind: NE 9 km/h
Temperature: 16°C
Dew Point: 13°C
Humidity: 83%
Barometer: 1032 hPa
Clouds: Few Clouds
Visibility: 10 km
Cloud details: Few Clouds 457 m
2020/01/18 23:00 LPPS 182300Z 05005KT 9999 FEW015 16/13 Q1032